Time;durP1;ratioP1;P1;durP2;ratioP2;P2;SDS_P1;SDS_P2;PMS_P1;PMS_P2;Temp;Humidity;BMP_temperature;BMP_pressure;BME280_temperature;BME280_humidity;BME280_pressure;Samples;Min_cycle;Max_cycle;Signal;HPM_P1;HPM_P2
2023/03/13 00:01:14;;;;;;;32.25;13.18;;;;;;;2.00;100.00;100006.53;6211224;23;20517;-74
2023/03/13 00:03:41;;;;;;;35.00;13.32;;;;;;;2.09;100.00;100013.69;6209518;23;20357;-75
2023/03/13 00:06:08;;;;;;;31.60;12.43;;;;;;;2.09;100.00;100007.56;6211183;23;20016;-75
2023/03/13 00:08:34;;;;;;;29.20;13.00;;;;;;;2.14;100.00;100006.25;6210507;23;20029;-75
2023/03/13 00:11:05;;;;;;;43.63;14.15;;;;;;;2.14;100.00;100008.06;6211417;23;20024;-75
2023/03/13 00:13:32;;;;;;;29.38;13.00;;;;;;;2.16;100.00;100008.75;6211452;23;20051;-72
2023/03/13 00:16:05;;;;;;;40.83;13.77;;;;;;;2.16;100.00;100000.81;6213706;23;20087;-62
2023/03/13 00:18:31;;;;;;;27.17;12.80;;;;;;;2.23;100.00;100001.16;6194982;23;20039;-62
2023/03/13 00:21:08;;;;;;;37.78;13.60;;;;;;;2.25;100.00;99989.50;6221324;23;20534;-63
2023/03/13 00:23:36;;;;;;;39.30;13.38;;;;;;;2.32;100.00;99988.03;6221768;23;20051;-64
2023/03/13 00:26:12;;;;;;;35.97;13.07;;;;;;;2.24;100.00;99987.00;6219760;23;20409;-64
2023/03/13 00:28:40;;;;;;;37.50;13.10;;;;;;;2.29;100.00;99993.56;6220728;23;20051;-63
2023/03/13 00:31:11;;;;;;;40.78;13.48;;;;;;;2.32;100.00;99982.75;6220510;23;20044;-63
2023/03/13 00:33:39;;;;;;;33.03;13.40;;;;;;;2.38;100.00;99990.19;6220191;23;20020;-64
2023/03/13 00:36:29;;;;;;;44.50;14.13;;;;;;;2.41;100.00;99979.34;6220124;23;20085;-64
2023/03/13 00:38:56;;;;;;;35.42;12.85;;;;;;;2.41;100.00;99975.88;6217107;23;20038;-63
2023/03/13 00:41:26;;;;;;;37.80;13.48;;;;;;;2.36;100.00;99976.22;6220567;23;20084;-65
2023/03/13 00:43:53;;;;;;;35.13;14.70;;;;;;;2.35;100.00;99974.56;6217213;23;20040;-62
2023/03/13 00:46:22;;;;;;;39.08;13.95;;;;;;;2.28;100.00;99973.38;6220179;23;20080;-64
2023/03/13 00:48:49;;;;;;;39.28;13.40;;;;;;;2.39;100.00;99978.63;6220118;23;20028;-63
2023/03/13 00:51:18;;;;;;;40.13;14.93;;;;;;;2.43;100.00;99961.50;6220957;23;20076;-62
2023/03/13 00:53:45;;;;;;;35.25;13.57;;;;;;;2.42;100.00;99962.50;6220962;23;20044;-63
2023/03/13 00:56:14;;;;;;;40.92;14.68;;;;;;;2.42;100.00;99962.50;6221654;23;20076;-63
2023/03/13 00:58:42;;;;;;;40.97;13.85;;;;;;;2.32;100.00;99961.56;6213554;23;20411;-63
2023/03/13 01:01:18;;;;;;;39.33;13.70;;;;;;;2.25;100.00;99956.91;6221846;23;20017;-62
2023/03/13 01:03:47;;;;;;;33.00;14.13;;;;;;;2.48;100.00;99957.66;6219788;23;20079;-62
2023/03/13 01:06:16;;;;;;;37.38;14.13;;;;;;;2.41;100.00;99947.59;6220887;23;20072;-62
2023/03/13 01:08:44;;;;;;;39.45;14.48;;;;;;;2.47;100.00;99948.88;6220368;23;20415;-66
2023/03/13 01:11:14;;;;;;;31.30;13.63;;;;;;;2.28;100.00;99946.06;6221375;23;20080;-62
2023/03/13 01:13:40;;;;;;;47.90;15.52;;;;;;;2.28;100.00;99938.97;6219748;23;20023;-62
2023/03/13 01:16:13;;;;;;;38.63;13.77;;;;;;;2.30;100.00;99942.31;6220374;23;20087;-63
2023/03/13 01:18:43;;;;;;;31.52;13.02;;;;;;;2.35;100.00;99941.94;6221159;23;20029;-63
2023/03/13 01:21:10;;;;;;;32.55;13.40;;;;;;;2.32;100.00;99935.09;6219460;23;20019;-64
2023/03/13 01:23:37;;;;;;;37.75;14.10;;;;;;;2.36;100.00;99936.53;6220075;23;20024;-64
2023/03/13 01:26:05;;;;;;;36.90;13.07;;;;;;;2.37;100.00;99940.88;6218384;23;20021;-63
2023/03/13 01:28:32;;;;;;;41.58;14.25;;;;;;;2.28;100.00;99946.91;6219234;23;20020;-63
2023/03/13 01:31:00;;;;;;;30.10;12.48;;;;;;;2.27;100.00;99952.31;6216273;23;20033;-66
2023/03/13 01:33:26;;;;;;;35.08;13.48;;;;;;;2.34;100.00;99941.13;6220925;23;20027;-63
2023/03/13 01:36:00;;;;;;;31.27;11.73;;;;;;;2.33;100.00;99938.56;6218826;23;20091;-63
2023/03/13 01:38:27;;;;;;;31.35;13.30;;;;;;;2.32;100.00;99935.09;6220818;23;20017;-63
2023/03/13 01:40:54;;;;;;;35.13;12.30;;;;;;;2.41;100.00;99933.50;6220174;23;20119;-63
2023/03/13 01:43:26;;;;;;;28.40;12.98;;;;;;;2.39;100.00;99938.91;6212214;23;20020;-63
2023/03/13 01:46:17;;;;;;;27.33;11.52;;;;;;;2.36;100.00;99944.47;6218310;23;20027;-63
2023/03/13 01:48:52;;;;;;;32.30;12.70;;;;;;;2.52;100.00;99938.75;6218942;23;20016;-63
2023/03/13 01:51:24;;;;;;;33.50;12.70;;;;;;;2.52;100.00;99932.63;6220144;23;20048;-64
2023/03/13 01:54:11;;;;;;;37.03;12.60;;;;;;;2.51;100.00;99925.63;6218957;23;21159;-63
2023/03/13 01:57:06;;;;;;;31.92;11.38;;;;;;;2.55;100.00;99908.53;6218858;23;20414;-64
2023/03/13 01:59:40;;;;;;;31.98;11.68;;;;;;;2.51;100.00;99917.69;6217896;23;20040;-65
2023/03/13 02:02:08;;;;;;;28.63;11.02;;;;;;;2.51;100.00;99915.03;6219010;23;20036;-63
2023/03/13 02:04:38;;;;;;;28.77;11.18;;;;;;;2.57;100.00;99914.53;6217043;23;20020;-66
2023/03/13 02:07:18;;;;;;;30.95;10.63;;;;;;;2.48;100.00;99897.63;6209559;23;20095;-67
2023/03/13 02:09:50;;;;;;;25.90;10.23;;;;;;;2.61;100.00;99900.06;6209693;23;20449;-66
2023/03/13 02:12:25;;;;;;;31.55;11.15;;;;;;;2.65;100.00;99890.88;6209703;23;20063;-67
2023/03/13 02:14:52;;;;;;;31.92;10.95;;;;;;;2.60;100.00;99898.38;6210023;23;21459;-66
2023/03/13 02:17:19;;;;;;;29.58;10.18;;;;;;;2.63;100.00;99887.53;6211159;23;20033;-66
2023/03/13 02:19:50;;;;;;;29.40;10.40;;;;;;;2.56;100.00;99881.91;6209151;23;20095;-66
2023/03/13 02:22:27;;;;;;;26.83;9.52;;;;;;;2.54;100.00;99880.34;6209102;23;20047;-67
2023/03/13 02:25:03;;;;;;;33.90;10.15;;;;;;;2.70;100.00;99879.91;6209106;23;20380;-66
2023/03/13 02:27:29;;;;;;;36.38;10.00;;;;;;;2.59;100.00;99878.19;6183317;23;20032;-66
2023/03/13 02:29:57;;;;;;;33.08;8.73;;;;;;;2.67;100.00;99876.53;6198261;23;20103;-66
2023/03/13 02:32:25;;;;;;;21.75;8.90;;;;;;;2.67;100.00;99876.53;6212810;23;20393;-67
2023/03/13 02:34:57;;;;;;;25.75;9.57;;;;;;;2.67;100.00;99875.72;6211905;23;20703;-66
2023/03/13 02:37:27;;;;;;;31.73;9.88;;;;;;;2.75;100.00;99869.75;6211149;23;20048;-67
2023/03/13 02:39:56;;;;;;;29.23;8.73;;;;;;;2.71;100.00;99866.53;6212258;23;20116;-67
2023/03/13 02:42:23;;;;;;;35.85;9.02;;;;;;;2.73;100.00;99867.25;6212765;23;20100;-73
2023/03/13 02:44:50;;;;;;;26.80;8.15;;;;;;;2.78;100.00;99858.91;6212407;23;20095;-72
2023/03/13 02:47:23;;;;;;;25.73;8.32;;;;;;;2.76;100.00;99853.75;6212226;23;20019;-73
2023/03/13 02:49:49;;;;;;;36.58;9.10;;;;;;;2.82;100.00;99857.66;6211375;23;20524;-73
2023/03/13 02:52:25;;;;;;;25.90;8.23;;;;;;;2.84;100.00;99851.28;6212850;23;20409;-72
2023/03/13 02:55:05;;;;;;;28.77;7.70;;;;;;;2.82;100.00;99844.41;6211088;23;20357;-72
2023/03/13 02:57:32;;;;;;;32.65;7.30;;;;;;;2.99;100.00;99842.97;6210783;23;20120;-73
2023/03/13 02:59:59;;;;;;;39.50;8.10;;;;;;;2.84;100.00;99835.38;6211879;23;20481;-72
2023/03/13 03:02:25;;;;;;;35.70;7.47;;;;;;;2.91;100.00;99831.22;6211430;23;20021;-72
2023/03/13 03:04:52;;;;;;;21.30;7.18;;;;;;;2.95;100.00;99828.31;6211348;23;20031;-72
2023/03/13 03:07:18;;;;;;;35.25;7.93;;;;;;;3.05;100.00;99819.44;6210312;23;20029;-71
2023/03/13 03:09:45;;;;;;;26.60;6.82;;;;;;;2.98;100.00;99813.00;6211401;23;20084;-73
2023/03/13 03:12:11;;;;;;;29.60;6.97;;;;;;;2.99;100.00;99813.81;6186275;23;20020;-71
2023/03/13 03:14:38;;;;;;;25.27;7.43;;;;;;;3.08;100.00;99808.56;6212067;23;20051;-71
2023/03/13 03:17:04;;;;;;;32.67;7.10;;;;;;;3.07;100.00;99803.41;6211846;23;20021;-72
2023/03/13 03:19:31;;;;;;;37.67;7.53;;;;;;;3.05;100.00;99808.00;6211134;23;20023;-73
2023/03/13 03:21:57;;;;;;;26.58;7.70;;;;;;;3.10;100.00;99805.75;6179792;23;20025;-72
2023/03/13 03:24:24;;;;;;;30.13;6.50;;;;;;;3.13;100.00;99805.50;6202515;23;20095;-73
2023/03/13 03:26:50;;;;;;;32.58;6.88;;;;;;;3.11;100.00;99803.00;6210836;23;20100;-72
2023/03/13 03:29:17;;;;;;;29.52;5.75;;;;;;;3.19;100.00;99804.13;6210703;23;20131;-72
2023/03/13 03:31:44;;;;;;;41.65;7.68;;;;;;;3.23;100.00;99805.53;6210879;23;20450;-73
2023/03/13 03:34:10;;;;;;;35.40;7.32;;;;;;;3.17;100.00;99798.97;6205755;23;20020;-73
2023/03/13 03:36:38;;;;;;;33.03;7.25;;;;;;;3.22;100.00;99793.28;6211285;23;20020;-73
2023/03/13 03:39:05;;;;;;;33.45;7.47;;;;;;;3.23;100.00;99789.63;6211708;23;20016;-73
2023/03/13 03:41:31;;;;;;;30.17;6.70;;;;;;;3.17;100.00;99801.63;6212029;23;20453;-73
2023/03/13 03:43:58;;;;;;;33.92;6.60;;;;;;;3.18;100.00;99779.44;6202701;23;20021;-73
2023/03/13 03:46:24;;;;;;;33.55;6.97;;;;;;;3.23;100.00;99785.16;6211212;23;20021;-73
2023/03/13 03:48:51;;;;;;;23.40;5.70;;;;;;;3.23;100.00;99773.72;6211056;23;20071;-73
2023/03/13 03:51:17;;;;;;;41.53;7.28;;;;;;;3.29;100.00;99770.53;6210859;23;20059;-74
2023/03/13 03:53:44;;;;;;;33.10;6.57;;;;;;;3.38;100.00;99765.25;6210947;23;20027;-72
2023/03/13 03:56:10;;;;;;;40.85;6.57;;;;;;;3.32;100.00;99762.31;6211442;23;20020;-73
2023/03/13 03:58:37;;;;;;;34.78;6.57;;;;;;;3.28;100.00;99760.94;6211413;23;20087;-74
2023/03/13 04:01:04;;;;;;;28.77;6.05;;;;;;;3.35;100.00;99767.34;6212458;23;20027;-73
2023/03/13 04:03:30;;;;;;;26.17;5.55;;;;;;;3.25;100.00;99754.06;6211764;23;20099;-71
2023/03/13 04:05:57;;;;;;;42.70;7.10;;;;;;;3.26;100.00;99752.25;6211524;23;20028;-73
2023/03/13 04:08:24;;;;;;;42.97;6.45;;;;;;;3.27;100.00;99752.09;6185390;23;22607;-73
2023/03/13 04:10:51;;;;;;;40.00;6.43;;;;;;;3.33;100.00;99748.91;6210633;23;20015;-73
2023/03/13 04:13:17;;;;;;;32.03;5.90;;;;;;;3.36;100.00;99743.34;6210357;23;20349;-72
2023/03/13 04:15:44;;;;;;;30.20;6.00;;;;;;;3.33;100.00;99743.63;6211185;23;20025;-72
2023/03/13 04:18:10;;;;;;;34.03;5.82;;;;;;;3.30;100.00;99737.75;6184410;23;20027;-72
2023/03/13 04:20:37;;;;;;;25.77;5.72;;;;;;;3.24;100.00;99725.91;6184034;23;20472;-72
2023/03/13 04:23:03;;;;;;;32.72;6.10;;;;;;;3.31;100.00;99729.69;6211885;23;20476;-73
2023/03/13 04:25:30;;;;;;;41.13;6.30;;;;;;;3.28;100.00;99722.00;6210889;23;20354;-74
2023/03/13 04:27:56;;;;;;;31.98;5.35;;;;;;;3.18;100.00;99712.34;6209725;23;20071;-74
2023/03/13 04:30:23;;;;;;;32.35;6.20;;;;;;;3.28;100.00;99702.59;6211263;23;20111;-74
2023/03/13 04:32:49;;;;;;;31.67;5.53;;;;;;;3.23;100.00;99707.47;6211146;23;20016;-72
2023/03/13 04:35:16;;;;;;;24.55;5.57;;;;;;;3.32;100.00;99699.53;6209511;23;20023;-72
2023/03/13 04:37:43;;;;;;;40.63;7.38;;;;;;;3.31;100.00;99692.56;6209855;23;20024;-73
2023/03/13 04:40:11;;;;;;;32.58;6.03;;;;;;;3.28;100.00;99692.00;6210444;23;20043;-73
2023/03/13 04:42:39;;;;;;;37.35;4.97;;;;;;;3.32;100.00;99688.09;6210058;23;20076;-72
2023/03/13 04:45:06;;;;;;;44.70;5.72;;;;;;;3.35;100.00;99683.34;6210640;23;20047;-71
2023/03/13 04:47:33;;;;;;;39.10;5.88;;;;;;;3.34;100.00;99687.00;6211168;23;20017;-71
2023/03/13 04:49:59;;;;;;;33.72;5.25;;;;;;;3.31;100.00;99678.47;6209593;23;20401;-72
2023/03/13 04:52:26;;;;;;;35.47;6.43;;;;;;;3.36;100.00;99677.06;6210378;23;20024;-73
2023/03/13 04:54:52;;;;;;;31.42;5.18;;;;;;;3.37;100.00;99667.28;6210292;23;20008;-74
2023/03/13 04:57:19;;;;;;;23.83;5.18;;;;;;;3.27;100.00;99667.28;6208219;23;20107;-74
2023/03/13 04:59:45;;;;;;;36.17;6.15;;;;;;;3.26;100.00;99659.47;6210410;23;20476;-73
2023/03/13 05:02:12;;;;;;;30.95;5.13;;;;;;;3.30;100.00;99653.75;6210209;23;20047;-72
2023/03/13 05:04:39;;;;;;;43.40;6.03;;;;;;;3.31;100.00;99650.16;6209336;23;20031;-72
2023/03/13 05:07:06;;;;;;;31.00;6.15;;;;;;;3.31;100.00;99644.84;6209814;23;20450;-71
2023/03/13 05:09:32;;;;;;;49.78;7.13;;;;;;;3.24;100.00;99638.44;6211146;23;20052;-73
2023/03/13 05:11:59;;;;;;;35.78;6.85;;;;;;;3.25;100.00;99632.16;6209522;23;20024;-72
2023/03/13 05:14:25;;;;;;;33.92;5.47;;;;;;;3.29;100.00;99614.16;6210079;23;20025;-73
2023/03/13 05:16:52;;;;;;;32.67;5.75;;;;;;;3.29;100.00;99617.63;6209629;23;20020;-72
2023/03/13 05:19:18;;;;;;;33.00;6.60;;;;;;;3.45;100.00;99611.78;6210109;23;20032;-71
2023/03/13 05:21:45;;;;;;;32.03;6.35;;;;;;;3.43;100.00;99607.56;6209309;23;20095;-73
2023/03/13 05:24:11;;;;;;;37.75;6.07;;;;;;;3.37;100.00;99612.44;6210734;23;20020;-72
2023/03/13 05:26:37;;;;;;;46.78;6.43;;;;;;;3.38;100.00;99608.00;6198478;23;20031;-71
2023/03/13 05:29:04;;;;;;;32.15;6.32;;;;;;;3.33;100.00;99613.72;6211360;23;20037;-73
2023/03/13 05:31:30;;;;;;;41.85;6.80;;;;;;;3.41;100.00;99596.25;6210545;23;20016;-73
2023/03/13 05:33:57;;;;;;;38.30;6.63;;;;;;;3.38;100.00;99594.75;6209289;23;20025;-73
2023/03/13 05:36:23;;;;;;;37.75;5.88;;;;;;;3.30;100.00;99587.47;6207448;23;20033;-72
2023/03/13 05:38:50;;;;;;;29.48;5.50;;;;;;;3.36;100.00;99578.97;6207374;23;20074;-72
2023/03/13 05:41:17;;;;;;;48.15;6.70;;;;;;;3.53;100.00;99576.59;6208456;23;20021;-72
2023/03/13 05:43:43;;;;;;;42.83;7.25;;;;;;;3.46;100.00;99567.53;6208217;23;20059;-72
2023/03/13 05:46:09;;;;;;;38.53;7.15;;;;;;;3.53;100.00;99563.31;6209970;23;20024;-73
2023/03/13 05:48:36;;;;;;;42.17;6.15;;;;;;;3.44;100.00;99557.03;6209016;23;20024;-68
2023/03/13 05:51:03;;;;;;;35.85;5.30;;;;;;;3.40;100.00;99547.72;6210169;23;20093;-73
2023/03/13 05:53:29;;;;;;;34.08;5.95;;;;;;;3.43;100.00;99544.78;6207788;23;20047;-73
2023/03/13 05:55:56;;;;;;;51.05;5.93;;;;;;;3.47;100.00;99542.69;6181980;23;20064;-75
2023/03/13 05:58:22;;;;;;;39.42;6.57;;;;;;;3.37;100.00;99540.03;6208800;23;20024;-73
2023/03/13 06:00:49;;;;;;;30.55;6.82;;;;;;;3.38;100.00;99537.25;6208589;23;20023;-74
2023/03/13 06:03:15;;;;;;;34.00;6.80;;;;;;;3.45;100.00;99534.00;6199049;23;20533;-74
2023/03/13 06:05:42;;;;;;;37.47;6.13;;;;;;;3.46;100.00;99525.94;6210103;23;20026;-74
2023/03/13 06:08:08;;;;;;;41.50;6.68;;;;;;;3.47;100.00;99521.47;6210701;23;20095;-73
2023/03/13 06:10:35;;;;;;;41.60;6.43;;;;;;;3.42;100.00;99529.03;6177990;23;20407;-64
2023/03/13 06:13:01;;;;;;;36.78;6.50;;;;;;;3.53;100.00;99523.53;6201273;23;20100;-65
2023/03/13 06:15:51;;;;;;;41.28;7.35;;;;;;;3.59;100.00;99521.16;6210128;23;20047;-67
2023/03/13 06:18:18;;;;;;;37.88;6.22;;;;;;;3.61;100.00;99519.19;6209367;23;20032;-66
2023/03/13 06:20:44;;;;;;;35.83;6.40;;;;;;;3.72;100.00;99512.84;6209925;23;20096;-66
2023/03/13 06:23:11;;;;;;;38.63;7.55;;;;;;;3.68;100.00;99502.69;6209644;23;20469;-66
2023/03/13 06:25:37;;;;;;;31.25;6.38;;;;;;;3.66;100.00;99500.19;6210988;23;20021;-66
2023/03/13 06:28:04;;;;;;;36.35;6.10;;;;;;;3.66;100.00;99499.38;6209398;23;20027;-66
2023/03/13 06:30:30;;;;;;;29.33;6.18;;;;;;;3.68;100.00;99490.25;6210664;23;20028;-66
2023/03/13 06:32:57;;;;;;;32.47;6.60;;;;;;;3.69;100.00;99480.47;6212173;23;20021;-63
2023/03/13 06:35:24;;;;;;;43.67;6.50;;;;;;;3.67;100.00;99469.19;6216513;23;20062;-65
2023/03/13 06:37:50;;;;;;;37.40;6.90;;;;;;;3.73;100.00;99460.66;6175590;23;20025;-64
2023/03/13 06:40:17;;;;;;;36.92;6.57;;;;;;;3.65;100.00;99466.69;6215560;23;20020;-64
2023/03/13 06:42:44;;;;;;;40.58;8.38;;;;;;;3.69;100.00;99452.16;6212744;23;20434;-62
2023/03/13 06:45:10;;;;;;;39.55;6.72;;;;;;;3.69;100.00;99451.31;6217478;23;20020;-63
2023/03/13 06:47:37;;;;;;;50.08;7.88;;;;;;;3.63;100.00;99439.47;6206725;23;20031;-62
2023/03/13 06:50:03;;;;;;;33.65;6.53;;;;;;;3.70;100.00;99431.78;6216427;23;20028;-62
2023/03/13 06:52:30;;;;;;;38.90;6.57;;;;;;;3.79;100.00;99426.44;6216175;23;20389;-62
2023/03/13 06:55:09;;;;;;;51.65;6.78;;;;;;;3.63;100.00;99420.91;6202151;23;20092;-63
2023/03/13 06:57:36;;;;;;;40.08;7.00;;;;;;;3.72;100.00;99414.72;6217936;23;20016;-61
2023/03/13 07:00:04;;;;;;;55.33;9.55;;;;;;;3.72;100.00;99412.06;6216765;23;20051;-61
2023/03/13 07:02:31;;;;;;;38.95;7.85;;;;;;;3.66;100.00;99411.84;6216755;23;20035;-61
2023/03/13 07:04:58;;;;;;;40.17;7.88;;;;;;;3.74;100.00;99418.06;6200409;23;20027;-62
2023/03/13 07:07:24;;;;;;;37.90;6.28;;;;;;;3.76;100.00;99407.28;6195183;23;20100;-63
2023/03/13 07:09:57;;;;;;;41.45;6.95;;;;;;;3.75;100.00;99405.63;6217371;23;20017;-61
2023/03/13 07:12:24;;;;;;;46.42;7.65;;;;;;;3.80;100.00;99421.94;6217049;23;20060;-63
2023/03/13 07:14:51;;;;;;;46.50;7.60;;;;;;;3.84;100.00;99415.34;6216460;23;20024;-61
2023/03/13 07:17:17;;;;;;;37.13;6.72;;;;;;;3.73;100.00;99416.41;6219100;23;20076;-64
2023/03/13 07:19:47;;;;;;;48.85;7.53;;;;;;;3.86;100.00;99411.59;6218744;23;20104;-64
2023/03/13 07:22:13;;;;;;;42.80;7.55;;;;;;;3.81;100.00;99408.53;6218084;23;20031;-65
2023/03/13 07:24:41;;;;;;;45.35;7.28;;;;;;;3.87;100.00;99399.16;6219291;23;20048;-64
2023/03/13 07:27:07;;;;;;;47.25;6.55;;;;;;;3.94;100.00;99384.28;6217246;23;20028;-63
2023/03/13 07:29:34;;;;;;;39.45;7.93;;;;;;;3.94;100.00;99386.94;6217484;23;20021;-63
2023/03/13 07:32:01;;;;;;;36.63;6.68;;;;;;;3.98;100.00;99385.66;6217794;23;20341;-63
2023/03/13 07:34:28;;;;;;;42.70;6.53;;;;;;;3.93;100.00;99392.38;6218233;23;20021;-64
2023/03/13 07:36:55;;;;;;;52.03;7.25;;;;;;;3.92;100.00;99385.41;6218002;23;20079;-63
2023/03/13 07:39:22;;;;;;;44.95;7.20;;;;;;;4.00;100.00;99375.75;6219864;23;20047;-64
2023/03/13 07:41:48;;;;;;;42.78;7.20;;;;;;;4.02;100.00;99380.88;6220985;23;20020;-64
2023/03/13 07:44:16;;;;;;;38.45;6.07;;;;;;;3.97;100.00;99378.69;6219258;23;20070;-64
2023/03/13 07:46:43;;;;;;;41.67;7.68;;;;;;;4.15;100.00;99367.25;6188362;23;20084;-64
2023/03/13 07:49:10;;;;;;;44.20;7.13;;;;;;;4.14;100.00;99361.09;6188787;23;20358;-65
2023/03/13 07:51:37;;;;;;;42.25;7.35;;;;;;;4.19;100.00;99361.47;6193045;23;20071;-63
2023/03/13 07:54:09;;;;;;;45.20;6.22;;;;;;;4.19;100.00;99348.19;6220647;23;20035;-63
2023/03/13 07:56:37;;;;;;;39.95;7.45;;;;;;;4.26;100.00;99343.13;6218798;23;20041;-64
2023/03/13 07:59:04;;;;;;;40.78;6.00;;;;;;;4.10;100.00;99357.06;6218323;23;20035;-64
2023/03/13 08:01:37;;;;;;;35.60;5.82;;;;;;;4.02;100.00;99341.06;6218685;23;20032;-64
2023/03/13 08:04:05;;;;;;;34.40;6.18;;;;;;;4.11;100.00;99340.19;6217939;23;20020;-64
2023/03/13 08:06:34;;;;;;;35.08;6.05;;;;;;;4.09;100.00;99336.81;6217188;23;20023;-64
2023/03/13 08:09:01;;;;;;;31.58;6.05;;;;;;;4.07;100.00;99336.13;6211828;23;20080;-64
2023/03/13 08:11:28;;;;;;;44.08;6.53;;;;;;;3.95;100.00;99337.38;6216345;23;20020;-64
2023/03/13 08:13:56;;;;;;;39.08;6.80;;;;;;;4.04;100.00;99328.50;6216665;23;20025;-64
2023/03/13 08:16:26;;;;;;;45.17;6.63;;;;;;;4.04;100.00;99312.59;6218613;23;20095;-64
2023/03/13 08:18:55;;;;;;;42.40;6.07;;;;;;;4.11;100.00;99318.94;6218022;23;20017;-64
2023/03/13 08:21:29;;;;;;;35.55;5.78;;;;;;;4.06;100.00;99315.91;6216934;23;20032;-64
2023/03/13 08:24:00;;;;;;;;;;;;;;;4.03;100.00;99317.03;6217514;23;20023;-64
2023/03/13 08:26:29;;;;;;;40.17;6.10;;;;;;;4.07;100.00;99302.50;6217388;23;19999;-64
2023/03/13 08:28:58;;;;;;;44.47;6.70;;;;;;;4.08;100.00;99298.00;6216967;23;20275;-64
2023/03/13 08:31:30;;;;;;;40.00;6.80;;;;;;;4.08;100.00;99287.41;6206989;23;20046;-65
2023/03/13 08:33:57;;;;;;;40.83;6.80;;;;;;;4.12;100.00;99294.06;6215796;23;20082;-64
2023/03/13 08:36:41;;;;;;;32.78;5.63;;;;;;;4.19;100.00;99286.31;6217510;23;20036;-64
2023/03/13 08:39:12;;;;;;;38.92;7.53;;;;;;;4.08;100.00;99285.56;6217598;23;20047;-64
2023/03/13 08:41:40;;;;;;;34.88;6.30;;;;;;;4.14;100.00;99280.63;6216237;23;20021;-66
2023/03/13 08:44:10;;;;;;;35.83;7.50;;;;;;;4.21;100.00;99284.31;6217907;23;20047;-64
2023/03/13 08:46:37;;;;;;;37.63;7.68;;;;;;;4.27;100.00;99281.06;6215928;23;20021;-64
2023/03/13 08:49:06;;;;;;;38.65;6.30;;;;;;;4.28;100.00;99264.16;6217056;23;20055;-64
2023/03/13 08:51:33;;;;;;;38.30;6.55;;;;;;;4.37;100.00;99265.03;6216898;23;20495;-64
2023/03/13 08:54:01;;;;;;;34.80;6.07;;;;;;;4.31;100.00;99277.09;6216662;23;20095;-65
2023/03/13 08:56:29;;;;;;;29.05;5.80;;;;;;;4.39;100.00;99266.59;6216909;23;20107;-64
2023/03/13 08:58:58;;;;;;;35.05;6.15;;;;;;;4.53;100.00;99252.72;6216383;23;20024;-64
2023/03/13 09:01:28;;;;;;;47.03;7.78;;;;;;;4.55;100.00;99255.22;6216336;23;20024;-64
2023/03/13 09:03:55;;;;;;;32.78;5.50;;;;;;;4.43;100.00;99253.84;6216330;23;20028;-64
2023/03/13 09:06:23;;;;;;;42.30;6.38;;;;;;;4.59;100.00;99253.94;6212922;23;20028;-64
2023/03/13 09:08:50;;;;;;;39.65;7.25;;;;;;;4.69;100.00;99241.34;6215603;23;20031;-67
2023/03/13 09:11:19;;;;;;;26.70;6.35;;;;;;;4.63;100.00;99233.19;6216235;23;20402;-65
2023/03/13 09:13:49;;;;;;;29.98;5.82;;;;;;;4.67;100.00;99231.88;6215843;23;20028;-64
2023/03/13 09:16:19;;;;;;;31.02;5.75;;;;;;;4.66;100.00;99230.19;6212211;23;20493;-64
2023/03/13 09:18:46;;;;;;;30.13;4.82;;;;;;;4.75;100.00;99231.91;6213983;23;20468;-65
2023/03/13 09:21:17;;;;;;;28.98;5.00;;;;;;;4.80;100.00;99242.91;6214050;23;20501;-64
2023/03/13 09:23:43;;;;;;;32.38;5.45;;;;;;;4.85;100.00;99245.09;6215285;23;20048;-64
2023/03/13 09:26:11;;;;;;;25.05;4.90;;;;;;;4.91;100.00;99239.97;6214330;23;20028;-64
2023/03/13 09:28:43;;;;;;;28.50;4.93;;;;;;;4.93;100.00;99231.81;6213312;23;20029;-64
2023/03/13 09:31:14;;;;;;;30.75;5.22;;;;;;;4.95;100.00;99232.50;6213592;23;20449;-65
2023/03/13 09:33:42;;;;;;;26.00;5.03;;;;;;;4.90;100.00;99245.44;6214282;23;20034;-64
2023/03/13 09:36:09;;;;;;;23.65;5.05;;;;;;;4.86;100.00;99241.44;6216250;23;20340;-64
2023/03/13 09:38:37;;;;;;;22.25;4.97;;;;;;;5.05;100.00;99238.53;6214975;23;20054;-64
2023/03/13 09:41:18;;;;;;;24.95;5.65;;;;;;;4.98;100.00;99229.53;6214726;23;20450;-63
2023/03/13 09:43:54;;;;;;;;;;;;;;;5.07;100.00;99227.72;6215610;23;20095;-65
2023/03/13 09:46:46;;;;;;;23.40;4.40;;;;;;;5.04;100.00;99231.56;6215923;23;19920;-64
2023/03/13 09:49:50;;;;;;;30.17;5.13;;;;;;;5.17;100.00;99210.63;6214464;23;20020;-65
2023/03/13 09:52:48;;;;;;;29.65;5.75;;;;;;;5.18;100.00;99214.97;6188155;23;20016;-64
2023/03/13 09:55:33;;;;;;;22.75;5.15;;;;;;;5.32;100.00;99207.34;6184093;23;20095;-64
2023/03/13 09:58:12;;;;;;;28.58;4.35;;;;;;;5.38;100.00;99204.03;6215205;23;20039;-64
2023/03/13 10:00:42;;;;;;;16.20;3.75;;;;;;;5.38;100.00;99217.34;6213215;23;20044;-64
2023/03/13 10:03:24;;;;;;;21.00;3.90;;;;;;;5.41;100.00;99212.50;6213344;23;20071;-64
2023/03/13 10:05:56;;;;;;;14.85;3.47;;;;;;;5.50;100.00;99214.19;6213412;23;20020;-67
2023/03/13 10:08:25;;;;;;;19.50;3.58;;;;;;;5.49;100.00;99219.66;6214184;23;20031;-65
2023/03/13 10:11:00;;;;;;;15.77;3.70;;;;;;;5.58;100.00;99212.53;6213734;23;20078;-67
2023/03/13 10:13:55;;;;;;;13.90;3.40;;;;;;;5.48;100.00;99208.19;6214575;23;20032;-65
2023/03/13 10:16:37;;;;;;;15.93;4.30;;;;;;;5.62;100.00;99209.38;6216666;23;20104;-66
2023/03/13 10:19:13;;;;;;;17.10;3.97;;;;;;;5.65;100.00;99205.56;6215346;23;20016;-64
2023/03/13 10:21:42;;;;;;;17.50;4.78;;;;;;;5.67;100.00;99215.06;6208537;23;20051;-66
2023/03/13 10:24:33;;;;;;;16.30;3.88;;;;;;;5.75;100.00;99206.25;6216829;23;20025;-65
2023/03/13 10:27:00;;;;;;;19.88;3.20;;;;;;;5.85;100.00;99206.91;6215842;23;20048;-64
2023/03/13 10:29:29;;;;;;;17.52;3.63;;;;;;;5.96;100.00;99201.22;6216027;23;20105;-64
2023/03/13 10:32:04;;;;;;;20.13;4.18;;;;;;;6.07;100.00;99199.22;6193111;23;20096;-64
2023/03/13 10:34:51;;;;;;;24.58;3.95;;;;;;;6.04;100.00;99187.06;6176621;23;20024;-64
2023/03/13 10:37:28;;;;;;;15.80;3.65;;;;;;;6.10;100.00;99202.38;6215803;23;20031;-66
2023/03/13 10:40:21;;;;;;;23.20;4.43;;;;;;;6.20;100.00;99184.41;6196842;23;20024;-64
2023/03/13 10:42:50;;;;;;;9.20;2.60;;;;;;;6.28;100.00;99175.59;6164240;23;20025;-64
2023/03/13 10:45:21;;;;;;;10.40;3.00;;;;;;;6.24;100.00;99177.72;6172737;23;20406;-65
2023/03/13 10:47:55;;;;;;;14.73;3.78;;;;;;;6.39;100.00;99169.06;6213891;23;20024;-64
2023/03/13 10:50:25;;;;;;;14.43;3.17;;;;;;;6.47;100.00;99175.22;6214799;23;20032;-64
2023/03/13 10:52:53;;;;;;;8.30;2.78;;;;;;;6.63;100.00;99166.34;6213705;23;20024;-64
2023/03/13 10:55:23;;;;;;;9.77;3.00;;;;;;;6.71;100.00;99168.13;6213681;23;20024;-64
2023/03/13 10:58:04;;;;;;;12.65;2.88;;;;;;;6.85;100.00;99171.91;6214166;23;20059;-65
2023/03/13 11:00:41;;;;;;;12.15;2.85;;;;;;;6.92;100.00;99168.34;6199744;23;20124;-64
2023/03/13 11:03:18;;;;;;;10.10;2.72;;;;;;;7.10;100.00;99162.75;6213999;23;20100;-64
2023/03/13 11:05:57;;;;;;;14.27;2.97;;;;;;;7.11;100.00;99164.41;6214576;23;20027;-65
2023/03/13 11:08:26;;;;;;;11.50;2.67;;;;;;;7.09;100.00;99157.59;6213759;23;20035;-65
2023/03/13 11:10:56;;;;;;;8.48;2.40;;;;;;;7.24;100.00;99160.34;6181777;23;20080;-64
2023/03/13 11:13:36;;;;;;;6.95;2.28;;;;;;;7.39;100.00;99147.88;6208484;23;20420;-64
2023/03/13 11:16:18;;;;;;;11.27;2.13;;;;;;;7.47;100.00;99144.34;6211928;23;20023;-65
2023/03/13 11:19:00;;;;;;;7.18;2.20;;;;;;;7.61;100.00;99139.06;6188645;23;20114;-65
2023/03/13 11:21:38;;;;;;;9.02;2.10;;;;;;;7.54;100.00;99142.63;6213841;23;20020;-65
2023/03/13 11:24:14;;;;;;;4.72;1.60;;;;;;;7.62;100.00;99124.69;6186174;23;20357;-65
2023/03/13 11:26:53;;;;;;;4.93;2.05;;;;;;;7.89;100.00;99127.81;6212966;23;20024;-66
2023/03/13 11:29:47;;;;;;;5.43;1.90;;;;;;;8.03;100.00;99121.66;6212975;23;20354;-65
2023/03/13 11:32:23;;;;;;;4.93;1.77;;;;;;;8.03;100.00;99124.34;6213606;23;20117;-65
2023/03/13 11:34:56;;;;;;;5.90;1.90;;;;;;;8.08;100.00;99121.09;6214410;23;20035;-65
2023/03/13 11:37:25;;;;;;;5.70;1.85;;;;;;;8.16;100.00;99136.22;6211910;23;20398;-64